createdAt,value
2022-12-09T00:00:36.671Z,96.03
2022-12-09T00:05:41.230Z,95.26
2022-12-09T00:10:45.016Z,93.54
2022-12-09T00:15:46.937Z,94.88
2022-12-09T00:20:48.706Z,94.90
2022-12-09T00:25:50.744Z,94.24
2022-12-09T00:30:52.436Z,94.61
2022-12-09T00:35:54.162Z,94.26
2022-12-09T00:40:55.873Z,95.52
2022-12-09T00:45:57.752Z,95.94
2022-12-09T00:50:59.679Z,94.39
2022-12-09T00:56:01.859Z,94.78
2022-12-09T01:01:04.160Z,95.04
2022-12-09T01:06:17.228Z,94.80
2022-12-09T01:11:29.422Z,95.56
2022-12-09T01:16:33.930Z,95.81
2022-12-09T01:21:36.026Z,94.35
2022-12-09T01:26:40.850Z,93.23
2022-12-09T01:31:42.818Z,93.99
2022-12-09T01:36:44.752Z,96.32
2022-12-09T01:41:46.552Z,95.27
2022-12-09T01:46:49.787Z,96.07
2022-12-09T01:52:24.316Z,95.57
2022-12-09T01:57:26.502Z,94.41
2022-12-09T02:02:30.751Z,95.63
2022-12-09T02:07:33.475Z,96.18
2022-12-09T02:12:57.091Z,97.97
2022-12-09T02:18:07.739Z,98.12
2022-12-09T02:23:22.991Z,98.59
2022-12-09T02:28:59.318Z,98.58
2022-12-09T02:34:23.217Z,97.97
2022-12-09T02:39:38.148Z,92.87
2022-12-09T02:44:43.934Z,92.37
2022-12-09T02:49:54.881Z,92.86
2022-12-09T02:54:58.523Z,91.87
2022-12-09T03:00:00.683Z,90.50
2022-12-09T03:05:27.359Z,89.64
2022-12-09T03:10:49.535Z,90.70
2022-12-09T03:15:59.538Z,91.63
2022-12-09T03:21:03.888Z,90.33
2022-12-09T03:26:07.395Z,91.78
2022-12-09T03:31:14.862Z,90.33
2022-12-09T03:36:18.454Z,90.20
2022-12-09T03:41:32.068Z,91.57
2022-12-09T03:46:34.016Z,90.74
2022-12-09T03:51:41.224Z,92.15
2022-12-09T03:56:48.161Z,92.14
2022-12-09T04:01:51.210Z,91.52
2022-12-09T04:06:54.619Z,91.41
2022-12-09T04:11:56.307Z,92.69
2022-12-09T04:16:58.192Z,92.74
2022-12-09T04:22:00.124Z,92.62
2022-12-09T04:27:02.281Z,92.95
2022-12-09T04:32:04.474Z,93.64
2022-12-09T04:37:06.466Z,94.23
2022-12-09T04:42:08.738Z,95.69
2022-12-09T04:47:10.622Z,95.04
2022-12-09T04:52:12.558Z,94.30
2022-12-09T04:57:14.438Z,94.40
2022-12-09T05:02:16.361Z,94.84
2022-12-09T05:07:18.676Z,96.11
2022-12-09T05:12:20.549Z,95.34
2022-12-09T05:17:22.730Z,95.64
2022-12-09T05:22:24.593Z,95.65
2022-12-09T05:27:26.581Z,95.79
2022-12-09T05:32:30.807Z,95.97
2022-12-09T05:37:32.843Z,95.29
2022-12-09T05:42:40.905Z,97.20
2022-12-09T05:47:43.344Z,96.95
2022-12-09T05:52:45.565Z,96.08
2022-12-09T05:57:47.666Z,96.59
2022-12-09T06:02:49.568Z,98.48
2022-12-09T06:07:51.573Z,99.09
2022-12-09T06:12:55.439Z,100.00
2022-12-09T06:17:57.323Z,99.86
2022-12-09T06:22:59.513Z,100.00
2022-12-09T06:28:01.466Z,100.00
2022-12-09T06:33:17.275Z,100.00
2022-12-09T06:38:25.001Z,100.00
2022-12-09T06:43:27.068Z,100.00
2022-12-09T06:48:29.312Z,99.91
2022-12-09T06:53:31.741Z,100.00
2022-12-09T06:58:33.873Z,100.00
2022-12-09T07:03:35.633Z,100.00
2022-12-09T07:08:37.758Z,100.00
2022-12-09T07:13:39.928Z,100.00
2022-12-09T07:18:42.167Z,100.00
2022-12-09T07:23:44.766Z,100.00
2022-12-09T07:28:48.837Z,100.00
2022-12-09T07:33:51.741Z,99.87
2022-12-09T07:39:21.764Z,97.16
2022-12-09T07:44:25.350Z,94.86
2022-12-09T07:49:27.436Z,92.69
2022-12-09T07:54:29.617Z,93.03
2022-12-09T07:59:31.779Z,94.52
2022-12-09T08:04:35.513Z,93.72
2022-12-09T08:09:37.774Z,93.80
2022-12-09T08:14:39.778Z,92.12
2022-12-09T08:19:42.125Z,91.14
2022-12-09T08:24:44.176Z,92.25
2022-12-09T08:29:46.134Z,89.66
2022-12-09T08:34:48.189Z,88.75
2022-12-09T08:39:50.245Z,88.26
2022-12-09T08:44:57.111Z,87.99
2022-12-09T08:50:04.139Z,88.39
2022-12-09T08:55:06.963Z,88.21
2022-12-09T09:00:09.534Z,88.93
2022-12-09T09:05:12.435Z,91.76
2022-12-09T09:10:14.665Z,91.04
2022-12-09T09:15:17.567Z,94.19
2022-12-09T09:20:20.086Z,94.87
2022-12-09T09:25:21.931Z,95.89
2022-12-09T09:30:23.780Z,96.16
2022-12-09T09:35:26.020Z,95.97
2022-12-09T09:40:29.615Z,94.36
2022-12-09T09:45:31.414Z,93.79
2022-12-09T09:50:44.596Z,92.51
2022-12-09T09:55:53.373Z,91.27
2022-12-09T10:01:12.219Z,89.34
2022-12-09T10:06:50.070Z,86.44
2022-12-09T10:12:05.749Z,87.51
2022-12-09T10:17:20.502Z,81.58
2022-12-09T10:22:29.732Z,71.68
2022-12-09T10:27:44.667Z,71.67
2022-12-09T10:32:47.598Z,73.31
2022-12-09T10:37:54.272Z,74.70
2022-12-09T10:43:21.504Z,73.42
2022-12-09T10:48:34.413Z,72.12
2022-12-09T10:53:36.891Z,73.59
2022-12-09T10:58:38.757Z,73.73
2022-12-09T11:03:46.774Z,71.71
2022-12-09T11:08:56.606Z,73.43
2022-12-09T11:13:58.956Z,76.38
2022-12-09T11:19:00.938Z,72.61
2022-12-09T11:24:04.872Z,70.52
2022-12-09T11:29:17.255Z,64.92
2022-12-09T11:34:27.417Z,69.06
2022-12-09T11:39:33.452Z,69.20
2022-12-09T11:44:36.177Z,68.40
2022-12-09T11:50:13.051Z,68.58
2022-12-09T11:55:23.005Z,69.74
2022-12-09T12:00:30.625Z,63.99
2022-12-09T12:05:39.304Z,63.49
2022-12-09T12:10:51.772Z,62.51
2022-12-09T12:16:14.340Z,64.24
2022-12-09T12:21:22.376Z,61.23
2022-12-09T12:26:28.837Z,60.15
2022-12-09T12:32:04.765Z,64.55
2022-12-09T12:37:39.528Z,65.85
2022-12-09T12:43:08.246Z,70.75
2022-12-09T12:48:20.456Z,74.30
2022-12-09T12:53:57.263Z,74.35
2022-12-09T12:59:12.644Z,78.96
2022-12-09T13:04:24.714Z,79.67
2022-12-09T13:09:41.688Z,80.77
2022-12-09T13:14:55.529Z,81.53
2022-12-09T13:20:01.994Z,82.80
2022-12-09T13:25:17.963Z,82.18
2022-12-09T13:30:30.671Z,82.19
2022-12-09T13:35:41.307Z,81.08
2022-12-09T13:40:43.120Z,77.63
2022-12-09T13:45:44.816Z,78.79
2022-12-09T13:50:49.261Z,78.89
2022-12-09T13:55:53.653Z,78.39
2022-12-09T14:01:04.905Z,78.60
2022-12-09T14:06:27.764Z,80.10
2022-12-09T14:11:38.373Z,81.27
2022-12-09T14:16:40.048Z,82.10
2022-12-09T14:21:41.705Z,82.70
2022-12-09T14:26:47.840Z,83.75
2022-12-09T14:31:58.574Z,84.82
2022-12-09T14:37:27.044Z,86.03
2022-12-09T14:42:42.804Z,88.31
2022-12-09T14:47:48.053Z,89.47
2022-12-09T14:53:02.859Z,88.35
2022-12-09T14:58:05.006Z,90.37
2022-12-09T15:03:33.214Z,89.48
2022-12-09T15:08:39.442Z,90.08
2022-12-09T15:13:43.986Z,91.00
2022-12-09T15:18:46.480Z,90.78
2022-12-09T15:23:48.376Z,90.79
2022-12-09T15:28:52.123Z,90.90
2022-12-09T15:33:56.737Z,91.33
2022-12-09T15:39:27.393Z,91.86
2022-12-09T15:44:43.927Z,91.18
2022-12-09T15:50:04.253Z,91.76
2022-12-09T15:55:11.186Z,92.52
2022-12-09T16:00:13.952Z,91.67
2022-12-09T16:05:22.639Z,91.63
2022-12-09T16:10:26.938Z,92.67
2022-12-09T16:15:50.929Z,92.47
2022-12-09T16:21:12.693Z,92.25
2022-12-09T16:26:36.237Z,93.45
2022-12-09T16:31:38.269Z,94.98
2022-12-09T16:36:53.406Z,94.22
2022-12-09T16:41:58.820Z,94.96
2022-12-09T16:47:13.202Z,95.36
2022-12-09T16:52:18.150Z,95.05
2022-12-09T16:57:20.837Z,94.21
2022-12-09T17:02:33.133Z,93.63
2022-12-09T17:07:34.922Z,94.33
2022-12-09T17:12:36.668Z,94.33
2022-12-09T17:17:38.453Z,93.95
2022-12-09T17:22:40.376Z,95.21
2022-12-09T17:27:42.032Z,94.38
2022-12-09T17:32:43.702Z,95.70
2022-12-09T17:37:45.411Z,96.34
2022-12-09T17:42:47.069Z,95.60
2022-12-09T17:47:49.975Z,95.32
2022-12-09T17:52:51.644Z,95.08
2022-12-09T17:57:54.392Z,94.65
2022-12-09T18:02:56.184Z,94.94
2022-12-09T18:07:57.858Z,94.85
2022-12-09T18:12:59.722Z,94.99
2022-12-09T18:18:01.419Z,94.05
2022-12-09T18:23:03.090Z,95.16
2022-12-09T18:28:05.730Z,94.54
2022-12-09T18:33:07.484Z,94.88
2022-12-09T18:38:12.622Z,93.94
2022-12-09T18:43:14.684Z,93.80
2022-12-09T18:48:16.365Z,94.36
2022-12-09T18:53:18.064Z,94.00
2022-12-09T18:58:36.524Z,94.28
2022-12-09T19:03:42.194Z,93.87
2022-12-09T19:08:43.863Z,94.72
2022-12-09T19:13:45.513Z,93.99
2022-12-09T19:18:47.759Z,94.32
2022-12-09T19:23:49.483Z,93.34
2022-12-09T19:28:53.708Z,93.38
2022-12-09T19:34:01.130Z,92.41
2022-12-09T19:39:08.312Z,92.76
2022-12-09T19:44:15.316Z,92.92
2022-12-09T19:49:21.180Z,93.11
2022-12-09T19:54:28.288Z,93.27
2022-12-09T19:59:30.404Z,93.49
2022-12-09T20:04:48.730Z,93.49
2022-12-09T20:09:51.149Z,93.28
2022-12-09T20:14:52.796Z,91.68
2022-12-09T20:19:54.495Z,91.44
2022-12-09T20:24:56.193Z,90.98
2022-12-09T20:29:57.858Z,90.42
2022-12-09T20:35:05.242Z,90.78
2022-12-09T20:40:10.973Z,90.58
2022-12-09T20:45:12.632Z,91.09
2022-12-09T20:50:14.312Z,91.80
2022-12-09T20:55:16.175Z,92.19
2022-12-09T21:00:18.015Z,91.22
2022-12-09T21:05:19.703Z,92.82
2022-12-09T21:10:21.485Z,92.63
2022-12-09T21:15:24.386Z,92.81
2022-12-09T21:20:26.155Z,92.50
2022-12-09T21:25:27.873Z,92.84
2022-12-09T21:30:29.685Z,93.70
2022-12-09T21:35:32.026Z,94.00
2022-12-09T21:40:34.195Z,94.30
2022-12-09T21:45:35.965Z,93.83
2022-12-09T21:50:37.770Z,95.29
2022-12-09T21:55:39.552Z,95.39
2022-12-09T22:00:41.364Z,94.68
2022-12-09T22:05:43.220Z,94.39
2022-12-09T22:10:45.215Z,95.86
2022-12-09T22:15:46.904Z,96.24
2022-12-09T22:21:22.953Z,96.80
2022-12-09T22:26:13.680Z,96.53
2022-12-09T22:31:21.503Z,97.87
2022-12-09T22:36:23.486Z,98.49
2022-12-09T22:41:27.756Z,97.21
2022-12-09T22:46:32.338Z,97.31
2022-12-09T22:51:36.594Z,99.12
2022-12-09T22:56:41.189Z,99.19
2022-12-09T23:01:45.995Z,99.22
2022-12-09T23:06:48.511Z,99.10
2022-12-09T23:11:52.657Z,99.53
2022-12-09T23:16:54.358Z,99.82
2022-12-09T23:21:56.033Z,99.98
2022-12-09T23:26:57.737Z,100.00
2022-12-09T23:31:59.413Z,100.00
2022-12-09T23:37:01.086Z,99.86
2022-12-09T23:42:02.778Z,98.35
2022-12-09T23:47:04.630Z,99.45
2022-12-09T23:52:06.370Z,98.95
2022-12-09T23:57:08.077Z,99.77
